This is the latest recevied weather packets stored in our database for station/object KC3VCX. If no packets are shown the sender has not sent any weather packets the latest 10 day(s).
| Time | Temp. | Humidity | Pressure | Rain* | Wind** | Luminosity | Snow |
|---|---|---|---|---|---|---|---|
| 1777929797 | 22.22° C | 47% | 1009.6 hPa | 0 mm | - | 454 W/m² | - |
| 1777929495 | 21.67° C | 48% | 1009.3 hPa | 0 mm | - | 479 W/m² | - |
| 1777929191 | 21.11° C | 50% | 1009.2 hPa | 0 mm | - | 133 W/m² | - |
| 1777928888 | 21.11° C | 51% | 1009.1 hPa | 0 mm | - | 124 W/m² | - |
| 1777928586 | 21.67° C | 50% | 1009.5 hPa | 0 mm | - | 132 W/m² | - |
| 1777928283 | 22.22° C | 48% | 1009.3 hPa | 0 mm | - | 542 W/m² | - |
| 1777927980 | 22.22° C | 50% | 1009.2 hPa | 0 mm | - | 194 W/m² | - |
| 1777927678 | 22.78° C | 47% | 1009.3 hPa | 0 mm | - | 565 W/m² | - |
| 1777927376 | 22.78° C | 47% | 1009.5 hPa | 0 mm | - | 581 W/m² | - |
| 1777927075 | 22.22° C | 47% | 1009.5 hPa | 0 mm | - | 608 W/m² | - |
| 1777926772 | 21.67° C | 50% | 1009.3 hPa | 0 mm | - | 650 W/m² | - |
| 1777926467 | 22.22° C | 48% | 1009.5 hPa | 0 mm | - | 226 W/m² | - |
| 1777926164 | 22.22° C | 48% | 1009.5 hPa | 0 mm | - | 212 W/m² | - |
| 1777925861 | 22.22° C | 46% | 1009.6 hPa | 0 mm | - | 686 W/m² | - |
| 1777925558 | 21.67° C | 47% | 1009.8 hPa | 0 mm | - | 702 W/m² | - |
| 1777925256 | 21.11° C | 49% | 1009.6 hPa | 0 mm | - | 232 W/m² | - |
| 1777924951 | 20.56° C | 50% | 1009.8 hPa | 0 mm | - | 130 W/m² | - |
| 1777924648 | 20.56° C | 49% | 1009.6 hPa | 0 mm | - | 117 W/m² | - |
| 1777924344 | 21.67° C | 49% | 1009.7 hPa | 0 mm | - | 113 W/m² | - |
| 1777924041 | 21.11° C | 50% | 1009.8 hPa | 0 mm | - | 761 W/m² | - |
| 1777923737 | 21.11° C | 49% | 1009.8 hPa | 0 mm | - | 216 W/m² | - |
| 1777923434 | 21.11° C | 48% | 1009.9 hPa | 0 mm | - | 160 W/m² | - |
| 1777923132 | 22.78° C | 45% | 1009.7 hPa | 0 mm | - | 206 W/m² | - |
| 1777922830 | 22.22° C | 48% | 1009.7 hPa | 0 mm | - | 854 W/m² | - |
| 1777922528 | 21.67° C | 47% | 1010 hPa | 0 mm | - | 346 W/m² | - |
* Rain latest hour (hover to see other rain measurements)
** Current wind speed in m/s (hover to see current wind gust speed)